This is the latest recevied weather packets stored in our database for station/object MO0NET-13. If no packets are shown the sender has not sent any weather packets the latest 10 day(s).
| Time | Temp. | Humidity | Pressure | Rain* | Wind** | Luminosity | Snow |
|---|---|---|---|---|---|---|---|
| 1788288003 | 18.89° C | 67% | 1020.9 hPa | 0 mm | - | 0 W/m² | - |
| 1788286803 | 19.44° C | 65% | 1020.8 hPa | 0 mm | - | 2 W/m² | - |
| 1788285603 | 20° C | 61% | 1020.7 hPa | 0 mm | - | 12 W/m² | - |
| 1788284403 | 21.11° C | 59% | 1020.5 hPa | 0 mm | - | 21 W/m² | - |
| 1788283203 | 21.67° C | 56% | 1020.4 hPa | 0 mm | - | 34 W/m² | - |
| 1788282003 | 21.67° C | 56% | 1020.3 hPa | 0 mm | - | 57 W/m² | - |
| 1788280803 | 22.78° C | 54% | 1020.4 hPa | 0 mm | - | 55 W/m² | - |
| 1788279603 | 22.78° C | 54% | 1020.3 hPa | 0 mm | - | 140 W/m² | - |
| 1788278403 | 23.33° C | 53% | 1020.1 hPa | 0 mm | - | 142 W/m² | - |
| 1788277203 | 23.89° C | 52% | 1020.2 hPa | 0 mm | - | 232 W/m² | - |
| 1788276003 | 22.78° C | 55% | 1020.2 hPa | 0 mm | - | 277 W/m² | - |
| 1788274803 | 23.33° C | 54% | 1020 hPa | 0 mm | - | 223 W/m² | - |
| 1788273603 | 22.22° C | 57% | 1020.2 hPa | 0 mm | - | 366 W/m² | - |
| 1788272403 | 23.33° C | 57% | 1020.1 hPa | 0 mm | - | 318 W/m² | - |
| 1788271203 | 23.33° C | 58% | 1020.3 hPa | 0 mm | - | 343 W/m² | - |
| 1788270003 | 22.78° C | 61% | 1020.4 hPa | 0 mm | - | 407 W/m² | - |
| 1788268806 | 21.11° C | 71% | 1020.2 hPa | 0 mm | - | 321 W/m² | - |
| 1788267603 | 20.56° C | 73% | 1020.4 hPa | 0 mm | - | 28 W/m² | - |
| 1788266403 | 21.11° C | 73% | 1020.4 hPa | 0 mm | - | 175 W/m² | - |
| 1788265203 | 21.11° C | 74% | 1020.4 hPa | 0 mm | - | 222 W/m² | - |
| 1788264003 | 20° C | 82% | 1020.5 hPa | 0 mm | - | 280 W/m² | - |
| 1788262803 | 19.44° C | 85% | 1020.5 hPa | 0.25 mm | - | 243 W/m² | - |
| 1788261603 | 17.78° C | 89% | 1020.5 hPa | 5.08 mm | - | 291 W/m² | - |
| 1788260403 | 17.22° C | 92% | 1020.5 hPa | 5.08 mm | - | 244 W/m² | - |
| 1788259203 | 17.22° C | 92% | 1020.7 hPa | 4.83 mm | - | 140 W/m² | - |
* Rain latest hour (hover to see other rain measurements)
** Current wind speed in m/s (hover to see current wind gust speed)